sensor_id;sensor_type;location;lat;lon;timestamp;temperature;humidity
5786;DHT22;2919;48.630;9.000;2023-08-07T00:01:51;10.60;99.90
5786;DHT22;2919;48.630;9.000;2023-08-07T00:04:17;10.60;99.90
5786;DHT22;2919;48.630;9.000;2023-08-07T00:06:42;10.50;99.90
5786;DHT22;2919;48.630;9.000;2023-08-07T00:09:08;10.50;99.90
5786;DHT22;2919;48.630;9.000;2023-08-07T00:11:33;10.50;99.90
5786;DHT22;2919;48.630;9.000;2023-08-07T00:13:59;10.60;99.90
5786;DHT22;2919;48.630;9.000;2023-08-07T00:16:26;10.50;99.90
5786;DHT22;2919;48.630;9.000;2023-08-07T00:18:51;10.50;99.90
5786;DHT22;2919;48.630;9.000;2023-08-07T00:21:21;10.40;99.90
5786;DHT22;2919;48.630;9.000;2023-08-07T00:23:47;10.40;99.90
5786;DHT22;2919;48.630;9.000;2023-08-07T00:26:13;10.40;99.90
5786;DHT22;2919;48.630;9.000;2023-08-07T00:28:38;10.40;99.90
5786;DHT22;2919;48.630;9.000;2023-08-07T00:31:04;10.40;99.90
5786;DHT22;2919;48.630;9.000;2023-08-07T00:33:29;10.40;99.90
5786;DHT22;2919;48.630;9.000;2023-08-07T00:35:55;10.40;99.90
5786;DHT22;2919;48.630;9.000;2023-08-07T00:38:20;10.40;99.90
5786;DHT22;2919;48.630;9.000;2023-08-07T00:40:46;10.40;99.90
5786;DHT22;2919;48.630;9.000;2023-08-07T00:43:12;10.40;99.90
5786;DHT22;2919;48.630;9.000;2023-08-07T00:45:45;10.50;99.90
5786;DHT22;2919;48.630;9.000;2023-08-07T00:48:11;10.50;99.90
5786;DHT22;2919;48.630;9.000;2023-08-07T00:50:39;10.50;99.90
5786;DHT22;2919;48.630;9.000;2023-08-07T00:53:05;10.40;99.90
5786;DHT22;2919;48.630;9.000;2023-08-07T00:55:32;10.40;99.90
5786;DHT22;2919;48.630;9.000;2023-08-07T00:57:58;10.40;99.90
5786;DHT22;2919;48.630;9.000;2023-08-07T01:00:25;10.40;99.90
5786;DHT22;2919;48.630;9.000;2023-08-07T01:02:52;10.30;99.90
5786;DHT22;2919;48.630;9.000;2023-08-07T01:05:20;10.30;99.90
5786;DHT22;2919;48.630;9.000;2023-08-07T01:07:47;10.30;99.90
5786;DHT22;2919;48.630;9.000;2023-08-07T01:10:13;10.30;99.90
5786;DHT22;2919;48.630;9.000;2023-08-07T01:12:48;10.40;99.90
5786;DHT22;2919;48.630;9.000;2023-08-07T01:15:22;10.40;99.90
5786;DHT22;2919;48.630;9.000;2023-08-07T01:17:49;10.30;99.90
5786;DHT22;2919;48.630;9.000;2023-08-07T01:20:17;10.30;99.90
5786;DHT22;2919;48.630;9.000;2023-08-07T01:22:43;10.20;99.90
5786;DHT22;2919;48.630;9.000;2023-08-07T01:25:09;10.20;99.90
5786;DHT22;2919;48.630;9.000;2023-08-07T01:28:01;10.20;99.90
5786;DHT22;2919;48.630;9.000;2023-08-07T01:30:39;10.20;99.90
5786;DHT22;2919;48.630;9.000;2023-08-07T01:33:26;10.20;99.90
5786;DHT22;2919;48.630;9.000;2023-08-07T01:35:56;10.20;99.90
5786;DHT22;2919;48.630;9.000;2023-08-07T01:38:24;10.20;99.90
5786;DHT22;2919;48.630;9.000;2023-08-07T01:40:51;10.30;99.90
5786;DHT22;2919;48.630;9.000;2023-08-07T01:43:18;10.30;99.90
5786;DHT22;2919;48.630;9.000;2023-08-07T01:45:45;10.30;99.90
5786;DHT22;2919;48.630;9.000;2023-08-07T01:48:11;10.50;99.90
5786;DHT22;2919;48.630;9.000;2023-08-07T01:50:38;10.50;99.90
5786;DHT22;2919;48.630;9.000;2023-08-07T01:53:04;10.50;99.90
5786;DHT22;2919;48.630;9.000;2023-08-07T01:55:30;10.40;99.90
5786;DHT22;2919;48.630;9.000;2023-08-07T01:57:55;10.40;99.90
5786;DHT22;2919;48.630;9.000;2023-08-07T02:00:21;10.50;99.90
5786;DHT22;2919;48.630;9.000;2023-08-07T02:02:47;10.50;99.90
5786;DHT22;2919;48.630;9.000;2023-08-07T02:05:14;10.50;99.90
5786;DHT22;2919;48.630;9.000;2023-08-07T02:07:40;10.60;99.90
5786;DHT22;2919;48.630;9.000;2023-08-07T02:10:06;10.70;99.90
5786;DHT22;2919;48.630;9.000;2023-08-07T02:12:32;10.70;99.90
5786;DHT22;2919;48.630;9.000;2023-08-07T02:15:00;10.70;99.90
5786;DHT22;2919;48.630;9.000;2023-08-07T02:17:29;10.70;99.90
5786;DHT22;2919;48.630;9.000;2023-08-07T02:20:04;10.70;99.90
5786;DHT22;2919;48.630;9.000;2023-08-07T02:22:30;10.70;99.90
5786;DHT22;2919;48.630;9.000;2023-08-07T02:24:56;10.70;99.90
5786;DHT22;2919;48.630;9.000;2023-08-07T02:27:21;10.80;99.90
5786;DHT22;2919;48.630;9.000;2023-08-07T02:29:47;10.80;99.90
5786;DHT22;2919;48.630;9.000;2023-08-07T02:32:13;10.80;99.90
5786;DHT22;2919;48.630;9.000;2023-08-07T02:34:38;10.80;99.90
5786;DHT22;2919;48.630;9.000;2023-08-07T02:37:04;10.90;99.90
5786;DHT22;2919;48.630;9.000;2023-08-07T02:39:30;10.90;99.90
5786;DHT22;2919;48.630;9.000;2023-08-07T02:41:55;10.90;99.90
5786;DHT22;2919;48.630;9.000;2023-08-07T02:44:21;11.20;99.90
5786;DHT22;2919;48.630;9.000;2023-08-07T02:46:46;11.00;99.90
5786;DHT22;2919;48.630;9.000;2023-08-07T02:49:12;11.20;99.90
5786;DHT22;2919;48.630;9.000;2023-08-07T02:51:38;11.00;99.90
5786;DHT22;2919;48.630;9.000;2023-08-07T02:54:03;11.00;99.90
5786;DHT22;2919;48.630;9.000;2023-08-07T02:56:29;11.00;99.90
5786;DHT22;2919;48.630;9.000;2023-08-07T02:58:55;11.00;99.90
5786;DHT22;2919;48.630;9.000;2023-08-07T03:01:23;11.00;99.90
5786;DHT22;2919;48.630;9.000;2023-08-07T03:03:49;11.00;99.90
5786;DHT22;2919;48.630;9.000;2023-08-07T03:06:14;11.40;99.90
5786;DHT22;2919;48.630;9.000;2023-08-07T03:08:40;11.00;99.90
5786;DHT22;2919;48.630;9.000;2023-08-07T03:11:05;11.00;99.90
5786;DHT22;2919;48.630;9.000;2023-08-07T03:13:31;11.00;99.90
5786;DHT22;2919;48.630;9.000;2023-08-07T03:16:04;11.00;99.90
5786;DHT22;2919;48.630;9.000;2023-08-07T03:18:30;10.90;99.90
5786;DHT22;2919;48.630;9.000;2023-08-07T03:20:56;10.90;99.90
5786;DHT22;2919;48.630;9.000;2023-08-07T03:23:23;10.90;99.90
5786;DHT22;2919;48.630;9.000;2023-08-07T03:25:49;11.00;99.90
5786;DHT22;2919;48.630;9.000;2023-08-07T03:28:15;11.00;99.90
5786;DHT22;2919;48.630;9.000;2023-08-07T03:30:41;10.90;99.90
5786;DHT22;2919;48.630;9.000;2023-08-07T03:33:07;10.80;99.90
5786;DHT22;2919;48.630;9.000;2023-08-07T03:35:33;10.80;99.90
5786;DHT22;2919;48.630;9.000;2023-08-07T03:37:59;10.70;99.90
5786;DHT22;2919;48.630;9.000;2023-08-07T03:40:24;11.30;99.90
5786;DHT22;2919;48.630;9.000;2023-08-07T03:42:50;10.70;99.90
5786;DHT22;2919;48.630;9.000;2023-08-07T03:45:15;11.00;99.90
5786;DHT22;2919;48.630;9.000;2023-08-07T03:47:41;10.70;99.90
5786;DHT22;2919;48.630;9.000;2023-08-07T03:50:07;11.20;99.90
5786;DHT22;2919;48.630;9.000;2023-08-07T03:52:33;10.70;99.90
5786;DHT22;2919;48.630;9.000;2023-08-07T03:54:58;10.70;99.90
5786;DHT22;2919;48.630;9.000;2023-08-07T03:57:24;10.70;99.90
5786;DHT22;2919;48.630;9.000;2023-08-07T03:59:50;10.60;99.90
5786;DHT22;2919;48.630;9.000;2023-08-07T04:02:16;10.50;99.90
5786;DHT22;2919;48.630;9.000;2023-08-07T04:04:41;10.50;99.90
5786;DHT22;2919;48.630;9.000;2023-08-07T04:07:07;10.60;99.90
5786;DHT22;2919;48.630;9.000;2023-08-07T04:09:33;10.60;99.90
5786;DHT22;2919;48.630;9.000;2023-08-07T04:11:59;10.70;99.90
5786;DHT22;2919;48.630;9.000;2023-08-07T04:14:24;10.90;99.90
5786;DHT22;2919;48.630;9.000;2023-08-07T04:16:51;10.60;99.90
5786;DHT22;2919;48.630;9.000;2023-08-07T04:19:16;11.00;99.90
5786;DHT22;2919;48.630;9.000;2023-08-07T04:21:42;10.50;99.90
5786;DHT22;2919;48.630;9.000;2023-08-07T04:24:07;10.50;99.90
5786;DHT22;2919;48.630;9.000;2023-08-07T04:26:39;10.40;99.90
5786;DHT22;2919;48.630;9.000;2023-08-07T04:29:05;10.30;99.90
5786;DHT22;2919;48.630;9.000;2023-08-07T04:31:31;10.80;99.90
5786;DHT22;2919;48.630;9.000;2023-08-07T04:33:57;10.30;99.90
5786;DHT22;2919;48.630;9.000;2023-08-07T04:36:23;10.90;99.90
5786;DHT22;2919;48.630;9.000;2023-08-07T04:38:50;10.30;99.90
5786;DHT22;2919;48.630;9.000;2023-08-07T04:41:15;10.20;99.90
5786;DHT22;2919;48.630;9.000;2023-08-07T04:43:41;10.30;99.90
5786;DHT22;2919;48.630;9.000;2023-08-07T04:46:08;10.50;99.90
5786;DHT22;2919;48.630;9.000;2023-08-07T04:48:38;10.30;99.90
5786;DHT22;2919;48.630;9.000;2023-08-07T04:51:03;11.00;99.90
5786;DHT22;2919;48.630;9.000;2023-08-07T04:53:29;10.40;99.90
5786;DHT22;2919;48.630;9.000;2023-08-07T04:55:54;10.30;99.90
5786;DHT22;2919;48.630;9.000;2023-08-07T04:58:20;11.10;99.90
5786;DHT22;2919;48.630;9.000;2023-08-07T05:00:46;10.30;99.90
5786;DHT22;2919;48.630;9.000;2023-08-07T05:03:12;10.30;99.90
5786;DHT22;2919;48.630;9.000;2023-08-07T05:05:38;10.40;99.90
5786;DHT22;2919;48.630;9.000;2023-08-07T05:08:03;10.30;99.90
5786;DHT22;2919;48.630;9.000;2023-08-07T05:10:29;10.50;99.90
5786;DHT22;2919;48.630;9.000;2023-08-07T05:12:55;10.30;99.90
5786;DHT22;2919;48.630;9.000;2023-08-07T05:15:24;10.40;99.90
5786;DHT22;2919;48.630;9.000;2023-08-07T05:17:51;10.50;99.90
5786;DHT22;2919;48.630;9.000;2023-08-07T05:20:17;10.40;99.90
5786;DHT22;2919;48.630;9.000;2023-08-07T05:22:43;10.40;99.90
5786;DHT22;2919;48.630;9.000;2023-08-07T05:25:08;10.40;99.90
5786;DHT22;2919;48.630;9.000;2023-08-07T05:27:35;10.60;99.90
5786;DHT22;2919;48.630;9.000;2023-08-07T05:30:01;10.50;99.90
5786;DHT22;2919;48.630;9.000;2023-08-07T05:32:27;10.60;99.90
5786;DHT22;2919;48.630;9.000;2023-08-07T05:34:53;10.70;99.90
5786;DHT22;2919;48.630;9.000;2023-08-07T05:37:19;11.40;99.90
5786;DHT22;2919;48.630;9.000;2023-08-07T05:39:44;10.90;99.90
5786;DHT22;2919;48.630;9.000;2023-08-07T05:42:10;11.10;99.90
5786;DHT22;2919;48.630;9.000;2023-08-07T05:44:37;11.20;99.90
5786;DHT22;2919;48.630;9.000;2023-08-07T05:47:03;11.60;99.90
5786;DHT22;2919;48.630;9.000;2023-08-07T05:49:28;11.40;99.90
5786;DHT22;2919;48.630;9.000;2023-08-07T05:51:54;12.30;99.90
5786;DHT22;2919;48.630;9.000;2023-08-07T05:54:19;11.60;99.90
5786;DHT22;2919;48.630;9.000;2023-08-07T05:56:45;11.60;99.90
5786;DHT22;2919;48.630;9.000;2023-08-07T05:59:11;11.60;99.90
5786;DHT22;2919;48.630;9.000;2023-08-07T06:01:36;11.60;99.90
5786;DHT22;2919;48.630;9.000;2023-08-07T06:04:02;12.60;99.90
5786;DHT22;2919;48.630;9.000;2023-08-07T06:06:28;11.80;99.90
5786;DHT22;2919;48.630;9.000;2023-08-07T06:08:54;11.80;99.90
5786;DHT22;2919;48.630;9.000;2023-08-07T06:11:21;12.90;99.90
5786;DHT22;2919;48.630;9.000;2023-08-07T06:13:46;11.80;99.90
5786;DHT22;2919;48.630;9.000;2023-08-07T06:16:12;11.70;99.90
5786;DHT22;2919;48.630;9.000;2023-08-07T06:18:37;12.90;99.90
5786;DHT22;2919;48.630;9.000;2023-08-07T06:21:03;12.00;99.90
5786;DHT22;2919;48.630;9.000;2023-08-07T06:23:35;12.30;99.90
5786;DHT22;2919;48.630;9.000;2023-08-07T06:26:00;12.00;99.90
5786;DHT22;2919;48.630;9.000;2023-08-07T06:28:30;12.00;99.90
5786;DHT22;2919;48.630;9.000;2023-08-07T06:31:09;12.20;99.90
5786;DHT22;2919;48.630;9.000;2023-08-07T06:33:35;12.00;99.90
5786;DHT22;2919;48.630;9.000;2023-08-07T06:36:02;12.00;99.90
5786;DHT22;2919;48.630;9.000;2023-08-07T06:38:29;12.10;99.90
5786;DHT22;2919;48.630;9.000;2023-08-07T06:40:54;12.20;99.90
5786;DHT22;2919;48.630;9.000;2023-08-07T06:43:20;12.20;99.90
5786;DHT22;2919;48.630;9.000;2023-08-07T06:45:49;12.20;99.90
5786;DHT22;2919;48.630;9.000;2023-08-07T06:48:15;12.40;99.90
5786;DHT22;2919;48.630;9.000;2023-08-07T06:50:41;12.30;99.90
5786;DHT22;2919;48.630;9.000;2023-08-07T06:53:06;12.40;99.90
5786;DHT22;2919;48.630;9.000;2023-08-07T06:55:32;12.40;99.90
5786;DHT22;2919;48.630;9.000;2023-08-07T06:57:58;12.60;99.90
5786;DHT22;2919;48.630;9.000;2023-08-07T07:00:24;12.70;99.90
5786;DHT22;2919;48.630;9.000;2023-08-07T07:02:50;12.70;99.90
5786;DHT22;2919;48.630;9.000;2023-08-07T07:05:15;12.70;99.90
5786;DHT22;2919;48.630;9.000;2023-08-07T07:07:41;12.80;99.90
5786;DHT22;2919;48.630;9.000;2023-08-07T07:10:07;12.70;99.90
5786;DHT22;2919;48.630;9.000;2023-08-07T07:12:33;12.70;99.90
5786;DHT22;2919;48.630;9.000;2023-08-07T07:14:59;12.70;99.90
5786;DHT22;2919;48.630;9.000;2023-08-07T07:17:24;12.70;99.90
5786;DHT22;2919;48.630;9.000;2023-08-07T07:19:50;12.90;99.90
5786;DHT22;2919;48.630;9.000;2023-08-07T07:22:15;12.90;99.90
5786;DHT22;2919;48.630;9.000;2023-08-07T07:24:41;13.20;99.90
5786;DHT22;2919;48.630;9.000;2023-08-07T07:27:07;13.50;99.90
5786;DHT22;2919;48.630;9.000;2023-08-07T07:29:32;13.80;99.90
5786;DHT22;2919;48.630;9.000;2023-08-07T07:31:59;14.10;99.90
5786;DHT22;2919;48.630;9.000;2023-08-07T07:34:25;14.40;99.90
5786;DHT22;2919;48.630;9.000;2023-08-07T07:36:50;14.40;99.90
5786;DHT22;2919;48.630;9.000;2023-08-07T07:39:16;14.10;99.90
5786;DHT22;2919;48.630;9.000;2023-08-07T07:41:42;14.50;99.90
5786;DHT22;2919;48.630;9.000;2023-08-07T07:44:08;14.80;99.90
5786;DHT22;2919;48.630;9.000;2023-08-07T07:46:34;14.70;99.90
5786;DHT22;2919;48.630;9.000;2023-08-07T07:49:00;14.90;99.90
5786;DHT22;2919;48.630;9.000;2023-08-07T07:51:26;15.60;99.90
5786;DHT22;2919;48.630;9.000;2023-08-07T07:53:53;16.30;99.50
5786;DHT22;2919;48.630;9.000;2023-08-07T07:56:18;15.90;98.20
5786;DHT22;2919;48.630;9.000;2023-08-07T07:58:44;16.20;97.90
5786;DHT22;2919;48.630;9.000;2023-08-07T08:01:10;16.80;96.30
5786;DHT22;2919;48.630;9.000;2023-08-07T08:03:35;16.60;95.80
5786;DHT22;2919;48.630;9.000;2023-08-07T08:06:01;16.90;96.00
5786;DHT22;2919;48.630;9.000;2023-08-07T08:08:27;17.00;95.50
5786;DHT22;2919;48.630;9.000;2023-08-07T08:10:52;17.50;94.60
5786;DHT22;2919;48.630;9.000;2023-08-07T08:13:18;18.20;93.60
5786;DHT22;2919;48.630;9.000;2023-08-07T08:15:44;18.40;92.20
5786;DHT22;2919;48.630;9.000;2023-08-07T08:18:11;18.20;92.80
5786;DHT22;2919;48.630;9.000;2023-08-07T08:20:39;18.20;93.20
5786;DHT22;2919;48.630;9.000;2023-08-07T08:23:05;18.10;92.70
5786;DHT22;2919;48.630;9.000;2023-08-07T08:25:31;18.50;92.50
5786;DHT22;2919;48.630;9.000;2023-08-07T08:27:58;18.70;92.20
5786;DHT22;2919;48.630;9.000;2023-08-07T08:30:24;18.60;90.70
5786;DHT22;2919;48.630;9.000;2023-08-07T08:32:50;17.80;91.40
5786;DHT22;2919;48.630;9.000;2023-08-07T08:35:15;17.40;91.60
5786;DHT22;2919;48.630;9.000;2023-08-07T08:37:41;16.70;91.80
5786;DHT22;2919;48.630;9.000;2023-08-07T08:40:08;17.10;91.40
5786;DHT22;2919;48.630;9.000;2023-08-07T08:42:40;17.30;90.20
5786;DHT22;2919;48.630;9.000;2023-08-07T08:45:09;18.00;92.10
5786;DHT22;2919;48.630;9.000;2023-08-07T08:47:36;18.60;90.50
5786;DHT22;2919;48.630;9.000;2023-08-07T08:50:08;19.00;89.10
5786;DHT22;2919;48.630;9.000;2023-08-07T08:52:37;18.20;89.00
5786;DHT22;2919;48.630;9.000;2023-08-07T08:55:03;17.20;90.40
5786;DHT22;2919;48.630;9.000;2023-08-07T08:57:30;17.30;90.30
5786;DHT22;2919;48.630;9.000;2023-08-07T08:59:58;17.50;89.70
5786;DHT22;2919;48.630;9.000;2023-08-07T09:02:25;17.90;89.10
5786;DHT22;2919;48.630;9.000;2023-08-07T09:04:51;18.20;86.60
5786;DHT22;2919;48.630;9.000;2023-08-07T09:07:19;17.50;86.60
5786;DHT22;2919;48.630;9.000;2023-08-07T09:09:46;17.20;85.80
5786;DHT22;2919;48.630;9.000;2023-08-07T09:12:19;17.50;84.30
5786;DHT22;2919;48.630;9.000;2023-08-07T09:14:50;18.00;86.10
5786;DHT22;2919;48.630;9.000;2023-08-07T09:17:18;18.30;84.80
5786;DHT22;2919;48.630;9.000;2023-08-07T09:19:44;19.00;85.80
5786;DHT22;2919;48.630;9.000;2023-08-07T09:22:10;18.70;85.60
5786;DHT22;2919;48.630;9.000;2023-08-07T09:24:35;17.90;86.00
5786;DHT22;2919;48.630;9.000;2023-08-07T09:27:02;17.30;89.70
5786;DHT22;2919;48.630;9.000;2023-08-07T09:29:28;16.90;90.20
5786;DHT22;2919;48.630;9.000;2023-08-07T09:31:54;17.00;90.50
5786;DHT22;2919;48.630;9.000;2023-08-07T09:34:20;17.40;91.00
5786;DHT22;2919;48.630;9.000;2023-08-07T09:36:46;17.80;88.70
5786;DHT22;2919;48.630;9.000;2023-08-07T09:39:12;17.50;88.40
5786;DHT22;2919;48.630;9.000;2023-08-07T09:41:37;17.40;90.20
5786;DHT22;2919;48.630;9.000;2023-08-07T09:44:07;17.00;89.40
5786;DHT22;2919;48.630;9.000;2023-08-07T09:46:41;16.80;90.50
5786;DHT22;2919;48.630;9.000;2023-08-07T09:49:07;16.80;90.20
5786;DHT22;2919;48.630;9.000;2023-08-07T09:51:46;16.70;91.00
5786;DHT22;2919;48.630;9.000;2023-08-07T09:54:12;16.50;90.70
5786;DHT22;2919;48.630;9.000;2023-08-07T09:56:40;16.60;90.60
5786;DHT22;2919;48.630;9.000;2023-08-07T09:59:06;16.50;91.40
5786;DHT22;2919;48.630;9.000;2023-08-07T10:01:32;16.30;91.00
5786;DHT22;2919;48.630;9.000;2023-08-07T10:03:58;16.20;91.90
5786;DHT22;2919;48.630;9.000;2023-08-07T10:06:24;16.30;92.40
5786;DHT22;2919;48.630;9.000;2023-08-07T10:08:50;16.60;91.50
5786;DHT22;2919;48.630;9.000;2023-08-07T10:11:16;16.40;91.00
5786;DHT22;2919;48.630;9.000;2023-08-07T10:13:43;16.30;91.70
5786;DHT22;2919;48.630;9.000;2023-08-07T10:16:09;16.20;92.00
5786;DHT22;2919;48.630;9.000;2023-08-07T10:18:35;15.90;91.90
5786;DHT22;2919;48.630;9.000;2023-08-07T10:21:03;16.00;92.50
5786;DHT22;2919;48.630;9.000;2023-08-07T10:23:29;16.00;92.10
5786;DHT22;2919;48.630;9.000;2023-08-07T10:25:56;16.20;92.70
5786;DHT22;2919;48.630;9.000;2023-08-07T10:28:24;16.50;92.20
5786;DHT22;2919;48.630;9.000;2023-08-07T10:30:51;16.60;91.70
5786;DHT22;2919;48.630;9.000;2023-08-07T10:33:17;16.70;91.40
5786;DHT22;2919;48.630;9.000;2023-08-07T10:35:46;17.00;91.10
5786;DHT22;2919;48.630;9.000;2023-08-07T10:38:14;17.00;90.50
5786;DHT22;2919;48.630;9.000;2023-08-07T10:43:27;17.00;91.50
5786;DHT22;2919;48.630;9.000;2023-08-07T10:46:04;17.30;91.00
5786;DHT22;2919;48.630;9.000;2023-08-07T10:48:46;17.40;91.60
5786;DHT22;2919;48.630;9.000;2023-08-07T10:51:14;17.30;90.30
5786;DHT22;2919;48.630;9.000;2023-08-07T10:53:44;16.80;90.80
5786;DHT22;2919;48.630;9.000;2023-08-07T10:56:15;16.60;91.50
5786;DHT22;2919;48.630;9.000;2023-08-07T10:58:41;16.30;92.20
5786;DHT22;2919;48.630;9.000;2023-08-07T11:01:26;16.40;91.60
5786;DHT22;2919;48.630;9.000;2023-08-07T11:03:54;16.50;91.30
5786;DHT22;2919;48.630;9.000;2023-08-07T11:06:40;16.40;92.30
5786;DHT22;2919;48.630;9.000;2023-08-07T11:09:07;16.40;92.30
5786;DHT22;2919;48.630;9.000;2023-08-07T11:11:43;16.70;91.60
5786;DHT22;2919;48.630;9.000;2023-08-07T11:14:11;16.50;91.50
5786;DHT22;2919;48.630;9.000;2023-08-07T11:16:37;16.50;91.40
5786;DHT22;2919;48.630;9.000;2023-08-07T11:19:04;16.60;92.60
5786;DHT22;2919;48.630;9.000;2023-08-07T11:21:31;16.60;91.10
5786;DHT22;2919;48.630;9.000;2023-08-07T11:23:57;16.80;91.40
5786;DHT22;2919;48.630;9.000;2023-08-07T11:26:22;17.00;91.50
5786;DHT22;2919;48.630;9.000;2023-08-07T11:28:50;17.10;90.70
5786;DHT22;2919;48.630;9.000;2023-08-07T11:31:17;17.40;90.80
5786;DHT22;2919;48.630;9.000;2023-08-07T11:33:43;17.20;91.00
5786;DHT22;2919;48.630;9.000;2023-08-07T11:36:13;17.20;91.80
5786;DHT22;2919;48.630;9.000;2023-08-07T11:38:40;17.10;91.80
5786;DHT22;2919;48.630;9.000;2023-08-07T11:41:08;17.50;90.50
5786;DHT22;2919;48.630;9.000;2023-08-07T11:43:35;17.20;90.00
5786;DHT22;2919;48.630;9.000;2023-08-07T11:46:03;17.00;91.70
5786;DHT22;2919;48.630;9.000;2023-08-07T11:48:30;16.80;90.30
5786;DHT22;2919;48.630;9.000;2023-08-07T11:50:57;16.60;91.70
5786;DHT22;2919;48.630;9.000;2023-08-07T11:53:25;16.50;91.00
5786;DHT22;2919;48.630;9.000;2023-08-07T11:55:58;16.20;92.00
5786;DHT22;2919;48.630;9.000;2023-08-07T11:58:26;16.10;92.00
5786;DHT22;2919;48.630;9.000;2023-08-07T12:00:53;15.90;92.40
5786;DHT22;2919;48.630;9.000;2023-08-07T12:03:31;15.80;92.70
5786;DHT22;2919;48.630;9.000;2023-08-07T12:06:01;15.70;92.40
5786;DHT22;2919;48.630;9.000;2023-08-07T12:08:38;15.60;92.40
5786;DHT22;2919;48.630;9.000;2023-08-07T12:11:11;15.50;92.10
5786;DHT22;2919;48.630;9.000;2023-08-07T12:13:44;15.40;93.10
5786;DHT22;2919;48.630;9.000;2023-08-07T12:16:11;15.40;93.30
5786;DHT22;2919;48.630;9.000;2023-08-07T12:18:47;15.40;93.20
5786;DHT22;2919;48.630;9.000;2023-08-07T12:21:18;15.30;93.40
5786;DHT22;2919;48.630;9.000;2023-08-07T12:23:45;15.20;94.70
5786;DHT22;2919;48.630;9.000;2023-08-07T12:26:15;15.20;94.40
5786;DHT22;2919;48.630;9.000;2023-08-07T12:28:41;15.30;94.10
5786;DHT22;2919;48.630;9.000;2023-08-07T12:31:07;15.20;93.20
5786;DHT22;2919;48.630;9.000;2023-08-07T12:33:33;15.40;93.80
5786;DHT22;2919;48.630;9.000;2023-08-07T12:35:59;15.60;94.00
5786;DHT22;2919;48.630;9.000;2023-08-07T12:38:26;15.80;93.40
5786;DHT22;2919;48.630;9.000;2023-08-07T12:40:52;16.00;94.00
5786;DHT22;2919;48.630;9.000;2023-08-07T12:43:17;16.10;93.00
5786;DHT22;2919;48.630;9.000;2023-08-07T12:45:43;16.10;93.60
5786;DHT22;2919;48.630;9.000;2023-08-07T12:48:09;15.90;93.90
5786;DHT22;2919;48.630;9.000;2023-08-07T12:50:35;15.80;93.80
5786;DHT22;2919;48.630;9.000;2023-08-07T12:53:01;15.50;95.30
5786;DHT22;2919;48.630;9.000;2023-08-07T12:55:27;15.30;94.90
5786;DHT22;2919;48.630;9.000;2023-08-07T12:57:54;15.20;94.50
5786;DHT22;2919;48.630;9.000;2023-08-07T13:00:20;15.10;94.60
5786;DHT22;2919;48.630;9.000;2023-08-07T13:02:47;15.20;94.60
5786;DHT22;2919;48.630;9.000;2023-08-07T13:05:14;15.20;94.90
5786;DHT22;2919;48.630;9.000;2023-08-07T13:07:41;15.40;95.20
5786;DHT22;2919;48.630;9.000;2023-08-07T13:10:08;15.50;94.90
5786;DHT22;2919;48.630;9.000;2023-08-07T13:12:35;15.80;94.10
5786;DHT22;2919;48.630;9.000;2023-08-07T13:15:02;16.10;93.80
5786;DHT22;2919;48.630;9.000;2023-08-07T13:17:28;16.40;93.80
5786;DHT22;2919;48.630;9.000;2023-08-07T13:19:53;16.70;93.80
5786;DHT22;2919;48.630;9.000;2023-08-07T13:22:19;17.00;93.10
5786;DHT22;2919;48.630;9.000;2023-08-07T13:24:44;17.20;92.50
5786;DHT22;2919;48.630;9.000;2023-08-07T13:27:10;17.10;92.60
5786;DHT22;2919;48.630;9.000;2023-08-07T13:29:36;17.20;92.20
5786;DHT22;2919;48.630;9.000;2023-08-07T13:32:02;17.00;92.60
5786;DHT22;2919;48.630;9.000;2023-08-07T13:34:37;16.60;92.70
5786;DHT22;2919;48.630;9.000;2023-08-07T13:37:04;16.50;92.80
5786;DHT22;2919;48.630;9.000;2023-08-07T13:39:30;16.40;92.50
5786;DHT22;2919;48.630;9.000;2023-08-07T13:41:56;16.30;92.80
5786;DHT22;2919;48.630;9.000;2023-08-07T13:44:21;16.60;93.20
5786;DHT22;2919;48.630;9.000;2023-08-07T13:46:48;17.00;92.30
5786;DHT22;2919;48.630;9.000;2023-08-07T13:49:14;17.30;92.10
5786;DHT22;2919;48.630;9.000;2023-08-07T13:51:40;17.60;91.70
5786;DHT22;2919;48.630;9.000;2023-08-07T13:54:06;17.80;91.30
5786;DHT22;2919;48.630;9.000;2023-08-07T13:56:33;18.00;91.60
5786;DHT22;2919;48.630;9.000;2023-08-07T13:58:59;18.20;92.50
5786;DHT22;2919;48.630;9.000;2023-08-07T14:01:25;18.30;91.60
5786;DHT22;2919;48.630;9.000;2023-08-07T14:03:51;18.40;90.10
5786;DHT22;2919;48.630;9.000;2023-08-07T14:06:17;18.30;91.00
5786;DHT22;2919;48.630;9.000;2023-08-07T14:08:42;18.50;90.30
5786;DHT22;2919;48.630;9.000;2023-08-07T14:11:08;18.50;89.00
5786;DHT22;2919;48.630;9.000;2023-08-07T14:13:34;18.30;88.00
5786;DHT22;2919;48.630;9.000;2023-08-07T14:15:59;18.10;89.10
5786;DHT22;2919;48.630;9.000;2023-08-07T14:18:25;17.90;88.70
5786;DHT22;2919;48.630;9.000;2023-08-07T14:20:52;17.90;87.90
5786;DHT22;2919;48.630;9.000;2023-08-07T14:23:17;17.90;89.20
5786;DHT22;2919;48.630;9.000;2023-08-07T14:25:44;18.00;88.40
5786;DHT22;2919;48.630;9.000;2023-08-07T14:28:10;18.00;88.60
5786;DHT22;2919;48.630;9.000;2023-08-07T14:30:36;17.80;88.90
5786;DHT22;2919;48.630;9.000;2023-08-07T14:33:01;17.60;91.20
5786;DHT22;2919;48.630;9.000;2023-08-07T14:35:27;17.50;89.80
5786;DHT22;2919;48.630;9.000;2023-08-07T14:37:52;17.40;90.30
5786;DHT22;2919;48.630;9.000;2023-08-07T14:40:18;17.40;90.70
5786;DHT22;2919;48.630;9.000;2023-08-07T14:42:43;17.30;90.50
5786;DHT22;2919;48.630;9.000;2023-08-07T14:45:09;17.20;91.10
5786;DHT22;2919;48.630;9.000;2023-08-07T14:47:35;17.00;91.40
5786;DHT22;2919;48.630;9.000;2023-08-07T14:50:01;16.90;91.60
5786;DHT22;2919;48.630;9.000;2023-08-07T14:52:26;16.80;91.70
5786;DHT22;2919;48.630;9.000;2023-08-07T14:54:52;16.80;92.20
5786;DHT22;2919;48.630;9.000;2023-08-07T14:57:21;16.70;92.00
5786;DHT22;2919;48.630;9.000;2023-08-07T14:59:46;16.60;91.60
5786;DHT22;2919;48.630;9.000;2023-08-07T15:02:12;16.50;91.80
5786;DHT22;2919;48.630;9.000;2023-08-07T15:04:38;16.60;92.30
5786;DHT22;2919;48.630;9.000;2023-08-07T15:07:04;16.50;92.30
5786;DHT22;2919;48.630;9.000;2023-08-07T15:09:29;16.50;92.40
5786;DHT22;2919;48.630;9.000;2023-08-07T15:11:55;16.60;92.30
5786;DHT22;2919;48.630;9.000;2023-08-07T15:14:21;16.70;92.90
5786;DHT22;2919;48.630;9.000;2023-08-07T15:16:47;16.90;92.70
5786;DHT22;2919;48.630;9.000;2023-08-07T15:19:12;17.00;92.90
5786;DHT22;2919;48.630;9.000;2023-08-07T15:21:38;17.20;92.60
5786;DHT22;2919;48.630;9.000;2023-08-07T15:24:03;17.30;93.20
5786;DHT22;2919;48.630;9.000;2023-08-07T15:26:29;17.50;92.40
5786;DHT22;2919;48.630;9.000;2023-08-07T15:28:55;17.60;91.30
5786;DHT22;2919;48.630;9.000;2023-08-07T15:31:20;17.90;90.50
5786;DHT22;2919;48.630;9.000;2023-08-07T15:33:46;18.20;89.80
5786;DHT22;2919;48.630;9.000;2023-08-07T15:36:12;18.40;89.50
5786;DHT22;2919;48.630;9.000;2023-08-07T15:38:38;18.60;88.90
5786;DHT22;2919;48.630;9.000;2023-08-07T15:41:04;18.40;89.40
5786;DHT22;2919;48.630;9.000;2023-08-07T15:43:30;18.10;89.70
5786;DHT22;2919;48.630;9.000;2023-08-07T15:45:55;17.90;90.60
5786;DHT22;2919;48.630;9.000;2023-08-07T15:48:22;17.60;90.40
5786;DHT22;2919;48.630;9.000;2023-08-07T15:50:48;17.50;91.40
5786;DHT22;2919;48.630;9.000;2023-08-07T15:53:14;17.40;91.30
5786;DHT22;2919;48.630;9.000;2023-08-07T15:55:40;17.40;91.80
5786;DHT22;2919;48.630;9.000;2023-08-07T15:58:06;17.40;91.30
5786;DHT22;2919;48.630;9.000;2023-08-07T16:00:34;17.50;91.30
5786;DHT22;2919;48.630;9.000;2023-08-07T16:03:04;17.40;90.90